Gordonsville, Kentucky
Current Conditions -  °F | °C
As of 12:55 AM on Monday 24 Nov 2014 (Local Time) from KM91 Reporting Station
Few Clouds Few Clouds  
Wind Chill: 61°   Ceiling: Unl
Heat Index: 61°   Visibility: 10mi
Dew Point: 59°   Wind: 14mph
Humidity: 94%   Direction: 210°SSW
Pressure: 29.43"   Gusts: NA
Location:  36.8547°N, 86.8859°W
Report Text: KM91 240655Z AUTO 21012KT 10SM FEW060 16/15 A2943 RMK
Loading
Personal Weather Stations






























Interactive Weather Map New forecast layout! Learn more

10-Day Weather Forecast

Advertisements
Track Severe Weather on mobile